sensor_id;sensor_type;location;lat;lon;timestamp;P1;durP1;ratioP1;P2;durP2;ratioP2
15077;SDS011;7638;49.760;8.646;2022-10-19T00:00:29;17.77;;;10.70;;
15077;SDS011;7638;49.760;8.646;2022-10-19T00:02:55;16.20;;;10.93;;
15077;SDS011;7638;49.760;8.646;2022-10-19T00:05:21;14.83;;;10.43;;
15077;SDS011;7638;49.760;8.646;2022-10-19T00:07:47;21.57;;;10.80;;
15077;SDS011;7638;49.760;8.646;2022-10-19T00:10:13;16.20;;;10.50;;
15077;SDS011;7638;49.760;8.646;2022-10-19T00:12:39;14.07;;;10.00;;
15077;SDS011;7638;49.760;8.646;2022-10-19T00:15:05;13.57;;;10.60;;
15077;SDS011;7638;49.760;8.646;2022-10-19T00:17:32;11.63;;;8.97;;
15077;SDS011;7638;49.760;8.646;2022-10-19T00:19:58;15.10;;;10.40;;
15077;SDS011;7638;49.760;8.646;2022-10-19T00:22:24;18.30;;;10.00;;
15077;SDS011;7638;49.760;8.646;2022-10-19T00:24:50;17.27;;;10.07;;
15077;SDS011;7638;49.760;8.646;2022-10-19T00:27:16;12.97;;;10.63;;
15077;SDS011;7638;49.760;8.646;2022-10-19T00:29:42;16.13;;;8.70;;
15077;SDS011;7638;49.760;8.646;2022-10-19T00:32:08;14.37;;;9.97;;
15077;SDS011;7638;49.760;8.646;2022-10-19T00:34:34;13.17;;;9.40;;
15077;SDS011;7638;49.760;8.646;2022-10-19T00:37:00;11.73;;;9.10;;
15077;SDS011;7638;49.760;8.646;2022-10-19T00:39:26;15.47;;;8.83;;
15077;SDS011;7638;49.760;8.646;2022-10-19T00:41:52;12.60;;;9.23;;
15077;SDS011;7638;49.760;8.646;2022-10-19T00:46:45;14.07;;;9.57;;
15077;SDS011;7638;49.760;8.646;2022-10-19T00:49:19;16.13;;;8.93;;
15077;SDS011;7638;49.760;8.646;2022-10-19T00:51:47;13.07;;;9.80;;
15077;SDS011;7638;49.760;8.646;2022-10-19T00:54:13;14.33;;;8.93;;
15077;SDS011;7638;49.760;8.646;2022-10-19T00:56:40;12.10;;;8.10;;
15077;SDS011;7638;49.760;8.646;2022-10-19T00:59:07;11.60;;;8.13;;
15077;SDS011;7638;49.760;8.646;2022-10-19T01:01:33;14.97;;;9.20;;
15077;SDS011;7638;49.760;8.646;2022-10-19T01:04:00;13.23;;;7.33;;
15077;SDS011;7638;49.760;8.646;2022-10-19T01:06:26;12.47;;;8.07;;
15077;SDS011;7638;49.760;8.646;2022-10-19T01:08:52;12.80;;;8.03;;
15077;SDS011;7638;49.760;8.646;2022-10-19T01:16:46;12.77;;;7.63;;
15077;SDS011;7638;49.760;8.646;2022-10-19T01:19:21;12.23;;;8.27;;
15077;SDS011;7638;49.760;8.646;2022-10-19T01:27:12;11.20;;;7.33;;
15077;SDS011;7638;49.760;8.646;2022-10-19T01:37:48;12.33;;;7.00;;
15077;SDS011;7638;49.760;8.646;2022-10-19T01:42:57;11.40;;;6.47;;
15077;SDS011;7638;49.760;8.646;2022-10-19T01:45:33;13.50;;;7.00;;
15077;SDS011;7638;49.760;8.646;2022-10-19T01:48:02;14.50;;;6.27;;
15077;SDS011;7638;49.760;8.646;2022-10-19T01:50:33;12.63;;;7.10;;
15077;SDS011;7638;49.760;8.646;2022-10-19T01:53:00;13.70;;;7.20;;
15077;SDS011;7638;49.760;8.646;2022-10-19T01:55:28;13.93;;;6.50;;
15077;SDS011;7638;49.760;8.646;2022-10-19T01:57:56;14.07;;;7.33;;
15077;SDS011;7638;49.760;8.646;2022-10-19T02:00:23;15.40;;;7.83;;
15077;SDS011;7638;49.760;8.646;2022-10-19T02:02:50;15.87;;;8.10;;
15077;SDS011;7638;49.760;8.646;2022-10-19T02:05:19;16.37;;;6.90;;
15077;SDS011;7638;49.760;8.646;2022-10-19T02:07:46;13.20;;;6.97;;
15077;SDS011;7638;49.760;8.646;2022-10-19T02:10:13;10.80;;;6.13;;
15077;SDS011;7638;49.760;8.646;2022-10-19T02:12:39;14.60;;;7.10;;
15077;SDS011;7638;49.760;8.646;2022-10-19T02:15:08;15.73;;;7.13;;
15077;SDS011;7638;49.760;8.646;2022-10-19T02:17:36;10.97;;;6.13;;
15077;SDS011;7638;49.760;8.646;2022-10-19T02:20:03;11.33;;;6.50;;
15077;SDS011;7638;49.760;8.646;2022-10-19T02:22:29;8.80;;;5.07;;
15077;SDS011;7638;49.760;8.646;2022-10-19T02:24:55;11.20;;;5.83;;
15077;SDS011;7638;49.760;8.646;2022-10-19T02:27:22;9.10;;;5.17;;
15077;SDS011;7638;49.760;8.646;2022-10-19T02:29:48;7.47;;;4.77;;
15077;SDS011;7638;49.760;8.646;2022-10-19T02:32:14;8.23;;;4.83;;
15077;SDS011;7638;49.760;8.646;2022-10-19T02:34:40;8.27;;;4.63;;
15077;SDS011;7638;49.760;8.646;2022-10-19T02:37:06;8.67;;;4.83;;
15077;SDS011;7638;49.760;8.646;2022-10-19T02:39:33;6.90;;;4.47;;
15077;SDS011;7638;49.760;8.646;2022-10-19T02:42:11;9.20;;;5.07;;
15077;SDS011;7638;49.760;8.646;2022-10-19T02:44:45;8.80;;;4.63;;
15077;SDS011;7638;49.760;8.646;2022-10-19T02:47:13;11.97;;;5.77;;
15077;SDS011;7638;49.760;8.646;2022-10-19T02:49:40;8.17;;;5.07;;
15077;SDS011;7638;49.760;8.646;2022-10-19T02:52:07;8.23;;;4.40;;
15077;SDS011;7638;49.760;8.646;2022-10-19T02:54:35;7.53;;;4.37;;
15077;SDS011;7638;49.760;8.646;2022-10-19T02:57:02;8.27;;;4.43;;
15077;SDS011;7638;49.760;8.646;2022-10-19T02:59:28;6.87;;;4.50;;
15077;SDS011;7638;49.760;8.646;2022-10-19T03:01:54;8.30;;;4.80;;
15077;SDS011;7638;49.760;8.646;2022-10-19T03:04:20;8.50;;;4.97;;
15077;SDS011;7638;49.760;8.646;2022-10-19T03:06:46;7.27;;;4.73;;
15077;SDS011;7638;49.760;8.646;2022-10-19T03:09:12;9.37;;;5.13;;
15077;SDS011;7638;49.760;8.646;2022-10-19T03:11:38;7.73;;;4.43;;
15077;SDS011;7638;49.760;8.646;2022-10-19T03:14:04;11.67;;;5.73;;
15077;SDS011;7638;49.760;8.646;2022-10-19T03:16:30;7.63;;;4.23;;
15077;SDS011;7638;49.760;8.646;2022-10-19T03:18:56;7.87;;;4.13;;
15077;SDS011;7638;49.760;8.646;2022-10-19T03:21:22;9.33;;;5.27;;
15077;SDS011;7638;49.760;8.646;2022-10-19T03:23:48;9.10;;;4.67;;
15077;SDS011;7638;49.760;8.646;2022-10-19T03:26:15;4.90;;;3.93;;
15077;SDS011;7638;49.760;8.646;2022-10-19T03:28:41;6.27;;;3.93;;
15077;SDS011;7638;49.760;8.646;2022-10-19T03:31:07;6.13;;;4.07;;
15077;SDS011;7638;49.760;8.646;2022-10-19T03:33:33;6.27;;;3.77;;
15077;SDS011;7638;49.760;8.646;2022-10-19T03:36:16;6.97;;;4.17;;
15077;SDS011;7638;49.760;8.646;2022-10-19T03:38:42;6.77;;;4.43;;
15077;SDS011;7638;49.760;8.646;2022-10-19T03:41:08;7.80;;;3.97;;
15077;SDS011;7638;49.760;8.646;2022-10-19T03:43:34;9.03;;;4.10;;
15077;SDS011;7638;49.760;8.646;2022-10-19T03:46:00;5.17;;;3.70;;
15077;SDS011;7638;49.760;8.646;2022-10-19T03:48:26;4.87;;;3.93;;
15077;SDS011;7638;49.760;8.646;2022-10-19T03:51:06;6.87;;;4.43;;
15077;SDS011;7638;49.760;8.646;2022-10-19T03:53:33;8.70;;;5.00;;
15077;SDS011;7638;49.760;8.646;2022-10-19T03:56:21;12.30;;;4.70;;
15077;SDS011;7638;49.760;8.646;2022-10-19T03:58:46;7.90;;;5.83;;
15077;SDS011;7638;49.760;8.646;2022-10-19T04:01:20;9.63;;;4.93;;
15077;SDS011;7638;49.760;8.646;2022-10-19T04:03:46;7.37;;;4.80;;
15077;SDS011;7638;49.760;8.646;2022-10-19T04:06:13;9.37;;;5.43;;
15077;SDS011;7638;49.760;8.646;2022-10-19T04:08:39;7.10;;;5.53;;
15077;SDS011;7638;49.760;8.646;2022-10-19T04:11:06;8.40;;;5.57;;
15077;SDS011;7638;49.760;8.646;2022-10-19T04:13:33;10.03;;;5.63;;
15077;SDS011;7638;49.760;8.646;2022-10-19T04:15:59;8.40;;;5.03;;
15077;SDS011;7638;49.760;8.646;2022-10-19T04:18:25;9.27;;;5.30;;
15077;SDS011;7638;49.760;8.646;2022-10-19T04:21:35;8.53;;;5.30;;
15077;SDS011;7638;49.760;8.646;2022-10-19T04:23:41;7.80;;;5.27;;
15077;SDS011;7638;49.760;8.646;2022-10-19T04:26:07;9.10;;;5.77;;
15077;SDS011;7638;49.760;8.646;2022-10-19T04:28:33;6.67;;;5.00;;
15077;SDS011;7638;49.760;8.646;2022-10-19T04:31:02;11.07;;;6.33;;
15077;SDS011;7638;49.760;8.646;2022-10-19T04:33:29;8.67;;;5.77;;
15077;SDS011;7638;49.760;8.646;2022-10-19T04:36:01;7.00;;;5.07;;
15077;SDS011;7638;49.760;8.646;2022-10-19T04:38:28;9.57;;;6.20;;
15077;SDS011;7638;49.760;8.646;2022-10-19T04:40:54;8.07;;;5.90;;
15077;SDS011;7638;49.760;8.646;2022-10-19T04:43:21;7.53;;;4.83;;
15077;SDS011;7638;49.760;8.646;2022-10-19T04:45:47;8.67;;;5.03;;
15077;SDS011;7638;49.760;8.646;2022-10-19T04:48:13;7.47;;;4.70;;
15077;SDS011;7638;49.760;8.646;2022-10-19T04:50:39;8.97;;;4.70;;
15077;SDS011;7638;49.760;8.646;2022-10-19T04:53:05;8.40;;;4.73;;
15077;SDS011;7638;49.760;8.646;2022-10-19T04:55:31;6.70;;;4.00;;
15077;SDS011;7638;49.760;8.646;2022-10-19T04:57:57;5.47;;;4.33;;
15077;SDS011;7638;49.760;8.646;2022-10-19T05:00:23;4.60;;;4.03;;
15077;SDS011;7638;49.760;8.646;2022-10-19T05:02:49;5.33;;;4.03;;
15077;SDS011;7638;49.760;8.646;2022-10-19T05:05:15;10.03;;;5.07;;
15077;SDS011;7638;49.760;8.646;2022-10-19T05:07:41;8.73;;;5.43;;
15077;SDS011;7638;49.760;8.646;2022-10-19T05:10:07;6.20;;;4.93;;
15077;SDS011;7638;49.760;8.646;2022-10-19T05:12:34;7.13;;;5.20;;
15077;SDS011;7638;49.760;8.646;2022-10-19T05:15:00;13.00;;;5.70;;
15077;SDS011;7638;49.760;8.646;2022-10-19T05:17:28;11.27;;;5.37;;
15077;SDS011;7638;49.760;8.646;2022-10-19T05:19:55;7.10;;;5.43;;
15077;SDS011;7638;49.760;8.646;2022-10-19T05:22:21;9.97;;;6.20;;
15077;SDS011;7638;49.760;8.646;2022-10-19T05:24:47;11.03;;;6.40;;
15077;SDS011;7638;49.760;8.646;2022-10-19T05:27:13;7.47;;;5.83;;
15077;SDS011;7638;49.760;8.646;2022-10-19T05:29:39;9.47;;;5.93;;
15077;SDS011;7638;49.760;8.646;2022-10-19T05:32:05;10.20;;;6.07;;
15077;SDS011;7638;49.760;8.646;2022-10-19T05:34:31;8.53;;;6.47;;
15077;SDS011;7638;49.760;8.646;2022-10-19T05:36:57;11.43;;;7.17;;
15077;SDS011;7638;49.760;8.646;2022-10-19T05:39:23;9.20;;;6.93;;
15077;SDS011;7638;49.760;8.646;2022-10-19T05:41:49;8.93;;;5.73;;
15077;SDS011;7638;49.760;8.646;2022-10-19T05:44:16;9.70;;;6.77;;
15077;SDS011;7638;49.760;8.646;2022-10-19T05:46:42;11.07;;;7.60;;
15077;SDS011;7638;49.760;8.646;2022-10-19T05:49:10;10.53;;;7.43;;
15077;SDS011;7638;49.760;8.646;2022-10-19T05:51:36;8.87;;;6.57;;
15077;SDS011;7638;49.760;8.646;2022-10-19T05:54:02;7.90;;;6.30;;
15077;SDS011;7638;49.760;8.646;2022-10-19T05:56:29;13.63;;;7.80;;
15077;SDS011;7638;49.760;8.646;2022-10-19T05:58:56;12.00;;;6.30;;
15077;SDS011;7638;49.760;8.646;2022-10-19T06:01:22;8.60;;;6.93;;
15077;SDS011;7638;49.760;8.646;2022-10-19T06:03:52;9.27;;;7.10;;
15077;SDS011;7638;49.760;8.646;2022-10-19T06:06:18;11.43;;;7.70;;
15077;SDS011;7638;49.760;8.646;2022-10-19T06:08:44;11.87;;;7.97;;
15077;SDS011;7638;49.760;8.646;2022-10-19T06:11:11;11.20;;;8.50;;
15077;SDS011;7638;49.760;8.646;2022-10-19T06:13:38;12.83;;;9.07;;
15077;SDS011;7638;49.760;8.646;2022-10-19T06:16:05;12.60;;;8.73;;
15077;SDS011;7638;49.760;8.646;2022-10-19T06:18:32;11.63;;;7.83;;
15077;SDS011;7638;49.760;8.646;2022-10-19T06:21:06;13.53;;;8.57;;
15077;SDS011;7638;49.760;8.646;2022-10-19T06:23:32;13.63;;;9.63;;
15077;SDS011;7638;49.760;8.646;2022-10-19T06:26:00;13.37;;;9.03;;
15077;SDS011;7638;49.760;8.646;2022-10-19T06:28:26;13.33;;;8.87;;
15077;SDS011;7638;49.760;8.646;2022-10-19T06:30:52;13.27;;;8.70;;
15077;SDS011;7638;49.760;8.646;2022-10-19T06:33:18;14.63;;;9.20;;
15077;SDS011;7638;49.760;8.646;2022-10-19T06:35:44;15.10;;;8.77;;
15077;SDS011;7638;49.760;8.646;2022-10-19T06:38:10;11.17;;;7.90;;
15077;SDS011;7638;49.760;8.646;2022-10-19T06:40:38;11.93;;;8.30;;
15077;SDS011;7638;49.760;8.646;2022-10-19T06:43:04;12.13;;;8.47;;
15077;SDS011;7638;49.760;8.646;2022-10-19T06:45:30;13.83;;;8.70;;
15077;SDS011;7638;49.760;8.646;2022-10-19T06:47:56;10.80;;;8.33;;
15077;SDS011;7638;49.760;8.646;2022-10-19T06:50:22;15.07;;;9.20;;
15077;SDS011;7638;49.760;8.646;2022-10-19T06:52:48;14.93;;;9.27;;
15077;SDS011;7638;49.760;8.646;2022-10-19T06:55:14;15.37;;;10.07;;
15077;SDS011;7638;49.760;8.646;2022-10-19T06:57:41;13.93;;;9.63;;
15077;SDS011;7638;49.760;8.646;2022-10-19T07:00:08;14.63;;;9.90;;
15077;SDS011;7638;49.760;8.646;2022-10-19T07:02:34;13.43;;;9.07;;
15077;SDS011;7638;49.760;8.646;2022-10-19T07:05:00;13.90;;;9.07;;
15077;SDS011;7638;49.760;8.646;2022-10-19T07:07:26;15.00;;;9.37;;
15077;SDS011;7638;49.760;8.646;2022-10-19T07:09:52;10.80;;;8.50;;
15077;SDS011;7638;49.760;8.646;2022-10-19T07:12:18;12.10;;;8.40;;
15077;SDS011;7638;49.760;8.646;2022-10-19T07:14:44;14.10;;;9.00;;
15077;SDS011;7638;49.760;8.646;2022-10-19T07:17:11;13.03;;;8.57;;
15077;SDS011;7638;49.760;8.646;2022-10-19T07:19:37;23.90;;;10.07;;
15077;SDS011;7638;49.760;8.646;2022-10-19T07:22:03;11.87;;;8.60;;
15077;SDS011;7638;49.760;8.646;2022-10-19T07:24:29;14.43;;;8.90;;
15077;SDS011;7638;49.760;8.646;2022-10-19T07:26:55;14.43;;;9.73;;
15077;SDS011;7638;49.760;8.646;2022-10-19T07:29:21;17.07;;;10.73;;
15077;SDS011;7638;49.760;8.646;2022-10-19T07:31:47;17.00;;;9.43;;
15077;SDS011;7638;49.760;8.646;2022-10-19T07:34:13;13.13;;;9.73;;
15077;SDS011;7638;49.760;8.646;2022-10-19T07:36:42;13.27;;;9.77;;
15077;SDS011;7638;49.760;8.646;2022-10-19T07:39:09;14.67;;;9.77;;
15077;SDS011;7638;49.760;8.646;2022-10-19T07:41:36;16.40;;;9.80;;
15077;SDS011;7638;49.760;8.646;2022-10-19T07:44:03;17.67;;;9.60;;
15077;SDS011;7638;49.760;8.646;2022-10-19T07:46:30;11.57;;;8.77;;
15077;SDS011;7638;49.760;8.646;2022-10-19T07:49:02;16.50;;;9.67;;
15077;SDS011;7638;49.760;8.646;2022-10-19T07:51:29;12.30;;;8.27;;
15077;SDS011;7638;49.760;8.646;2022-10-19T07:53:56;13.87;;;8.53;;
15077;SDS011;7638;49.760;8.646;2022-10-19T07:56:23;12.80;;;8.87;;
15077;SDS011;7638;49.760;8.646;2022-10-19T07:58:50;13.40;;;8.73;;
15077;SDS011;7638;49.760;8.646;2022-10-19T08:01:17;17.17;;;9.40;;
15077;SDS011;7638;49.760;8.646;2022-10-19T08:03:43;13.83;;;8.37;;
15077;SDS011;7638;49.760;8.646;2022-10-19T08:06:11;13.17;;;9.17;;
15077;SDS011;7638;49.760;8.646;2022-10-19T08:08:37;14.63;;;8.27;;
15077;SDS011;7638;49.760;8.646;2022-10-19T08:11:07;14.23;;;8.63;;
15077;SDS011;7638;49.760;8.646;2022-10-19T08:13:34;14.37;;;8.40;;
15077;SDS011;7638;49.760;8.646;2022-10-19T08:16:00;12.13;;;7.87;;
15077;SDS011;7638;49.760;8.646;2022-10-19T08:18:26;11.83;;;7.77;;
15077;SDS011;7638;49.760;8.646;2022-10-19T08:20:52;11.73;;;7.57;;
15077;SDS011;7638;49.760;8.646;2022-10-19T08:23:18;11.23;;;7.03;;
15077;SDS011;7638;49.760;8.646;2022-10-19T08:25:44;16.70;;;8.40;;
15077;SDS011;7638;49.760;8.646;2022-10-19T08:28:10;10.77;;;7.97;;
15077;SDS011;7638;49.760;8.646;2022-10-19T08:30:36;13.53;;;7.90;;
15077;SDS011;7638;49.760;8.646;2022-10-19T08:33:17;10.00;;;7.33;;
15077;SDS011;7638;49.760;8.646;2022-10-19T08:35:43;9.80;;;6.73;;
15077;SDS011;7638;49.760;8.646;2022-10-19T08:38:09;8.40;;;7.03;;
15077;SDS011;7638;49.760;8.646;2022-10-19T08:40:35;11.13;;;6.90;;
15077;SDS011;7638;49.760;8.646;2022-10-19T08:43:03;18.77;;;8.73;;
15077;SDS011;7638;49.760;8.646;2022-10-19T08:50:36;12.07;;;7.63;;
15077;SDS011;7638;49.760;8.646;2022-10-19T08:53:04;11.70;;;8.30;;
15077;SDS011;7638;49.760;8.646;2022-10-19T08:55:37;11.03;;;7.00;;
15077;SDS011;7638;49.760;8.646;2022-10-19T08:58:26;11.00;;;7.40;;
15077;SDS011;7638;49.760;8.646;2022-10-19T09:01:04;12.53;;;7.37;;
15077;SDS011;7638;49.760;8.646;2022-10-19T09:08:38;13.60;;;7.80;;
15077;SDS011;7638;49.760;8.646;2022-10-19T09:11:05;13.90;;;7.90;;
15077;SDS011;7638;49.760;8.646;2022-10-19T09:13:44;11.50;;;7.77;;
15077;SDS011;7638;49.760;8.646;2022-10-19T09:16:11;15.00;;;7.73;;
15077;SDS011;7638;49.760;8.646;2022-10-19T09:18:37;13.00;;;8.33;;
15077;SDS011;7638;49.760;8.646;2022-10-19T09:21:09;12.53;;;7.90;;
15077;SDS011;7638;49.760;8.646;2022-10-19T09:23:39;12.20;;;6.97;;
15077;SDS011;7638;49.760;8.646;2022-10-19T09:26:11;9.70;;;6.97;;
15077;SDS011;7638;49.760;8.646;2022-10-19T09:28:40;10.63;;;6.83;;
15077;SDS011;7638;49.760;8.646;2022-10-19T09:31:13;14.10;;;8.07;;
15077;SDS011;7638;49.760;8.646;2022-10-19T09:33:40;13.23;;;7.73;;
15077;SDS011;7638;49.760;8.646;2022-10-19T09:36:06;9.53;;;6.80;;
15077;SDS011;7638;49.760;8.646;2022-10-19T09:38:33;11.53;;;7.30;;
15077;SDS011;7638;49.760;8.646;2022-10-19T09:41:06;13.60;;;7.23;;
15077;SDS011;7638;49.760;8.646;2022-10-19T09:43:37;11.27;;;5.73;;
15077;SDS011;7638;49.760;8.646;2022-10-19T09:46:11;8.90;;;6.20;;
15077;SDS011;7638;49.760;8.646;2022-10-19T09:48:48;8.53;;;5.97;;
15077;SDS011;7638;49.760;8.646;2022-10-19T09:51:16;9.20;;;6.50;;
15077;SDS011;7638;49.760;8.646;2022-10-19T09:53:45;10.47;;;6.60;;
15077;SDS011;7638;49.760;8.646;2022-10-19T09:56:21;9.93;;;5.67;;
15077;SDS011;7638;49.760;8.646;2022-10-19T09:58:49;8.80;;;5.97;;
15077;SDS011;7638;49.760;8.646;2022-10-19T10:04:03;7.97;;;5.17;;
15077;SDS011;7638;49.760;8.646;2022-10-19T10:06:29;7.97;;;5.47;;
15077;SDS011;7638;49.760;8.646;2022-10-19T10:08:55;7.57;;;5.13;;
15077;SDS011;7638;49.760;8.646;2022-10-19T10:13:55;7.03;;;4.80;;
15077;SDS011;7638;49.760;8.646;2022-10-19T10:16:22;7.67;;;4.90;;
15077;SDS011;7638;49.760;8.646;2022-10-19T10:21:25;12.80;;;6.53;;
15077;SDS011;7638;49.760;8.646;2022-10-19T10:26:25;9.53;;;5.17;;
15077;SDS011;7638;49.760;8.646;2022-10-19T10:28:51;7.73;;;6.03;;
15077;SDS011;7638;49.760;8.646;2022-10-19T10:31:24;13.03;;;5.53;;
15077;SDS011;7638;49.760;8.646;2022-10-19T10:33:57;9.63;;;4.93;;
15077;SDS011;7638;49.760;8.646;2022-10-19T10:36:27;6.20;;;4.70;;
15077;SDS011;7638;49.760;8.646;2022-10-19T10:38:57;5.43;;;4.87;;
15077;SDS011;7638;49.760;8.646;2022-10-19T10:41:27;7.07;;;5.07;;
15077;SDS011;7638;49.760;8.646;2022-10-19T10:43:58;7.77;;;4.90;;
15077;SDS011;7638;49.760;8.646;2022-10-19T10:46:31;5.70;;;4.70;;
15077;SDS011;7638;49.760;8.646;2022-10-19T10:49:00;7.73;;;5.30;;
15077;SDS011;7638;49.760;8.646;2022-10-19T10:51:31;7.23;;;5.07;;
15077;SDS011;7638;49.760;8.646;2022-10-19T10:56:42;7.30;;;5.57;;
15077;SDS011;7638;49.760;8.646;2022-10-19T10:59:20;7.23;;;4.70;;
15077;SDS011;7638;49.760;8.646;2022-10-19T11:02:01;6.60;;;4.87;;
15077;SDS011;7638;49.760;8.646;2022-10-19T11:04:29;6.70;;;4.70;;
15077;SDS011;7638;49.760;8.646;2022-10-19T11:06:58;11.50;;;4.50;;
15077;SDS011;7638;49.760;8.646;2022-10-19T11:11:51;7.97;;;4.20;;
15077;SDS011;7638;49.760;8.646;2022-10-19T11:16:52;7.10;;;4.20;;
15077;SDS011;7638;49.760;8.646;2022-10-19T11:19:26;5.53;;;4.17;;
15077;SDS011;7638;49.760;8.646;2022-10-19T11:21:55;4.97;;;4.47;;
15077;SDS011;7638;49.760;8.646;2022-10-19T11:26:54;6.33;;;4.67;;
15077;SDS011;7638;49.760;8.646;2022-10-19T11:32:16;6.17;;;3.97;;
15077;SDS011;7638;49.760;8.646;2022-10-19T11:37:42;5.70;;;4.10;;
15077;SDS011;7638;49.760;8.646;2022-10-19T11:45:23;4.73;;;4.20;;
15077;SDS011;7638;49.760;8.646;2022-10-19T11:50:39;4.23;;;2.77;;
15077;SDS011;7638;49.760;8.646;2022-10-19T11:53:22;5.23;;;3.90;;
15077;SDS011;7638;49.760;8.646;2022-10-19T12:03:53;3.60;;;3.10;;
15077;SDS011;7638;49.760;8.646;2022-10-19T12:06:34;3.60;;;3.23;;
15077;SDS011;7638;49.760;8.646;2022-10-19T12:14:12;3.07;;;2.47;;
15077;SDS011;7638;49.760;8.646;2022-10-19T12:16:41;3.50;;;3.10;;
15077;SDS011;7638;49.760;8.646;2022-10-19T12:19:13;2.83;;;2.23;;
15077;SDS011;7638;49.760;8.646;2022-10-19T12:21:41;3.13;;;2.50;;
15077;SDS011;7638;49.760;8.646;2022-10-19T12:24:18;2.57;;;2.10;;
15077;SDS011;7638;49.760;8.646;2022-10-19T12:26:45;2.90;;;2.60;;
15077;SDS011;7638;49.760;8.646;2022-10-19T12:29:15;5.23;;;3.07;;
15077;SDS011;7638;49.760;8.646;2022-10-19T12:31:42;4.77;;;2.77;;
15077;SDS011;7638;49.760;8.646;2022-10-19T12:37:05;2.83;;;2.57;;
15077;SDS011;7638;49.760;8.646;2022-10-19T12:39:50;2.90;;;2.67;;
15077;SDS011;7638;49.760;8.646;2022-10-19T12:47:17;7.93;;;2.47;;
15077;SDS011;7638;49.760;8.646;2022-10-19T12:49:44;3.13;;;2.53;;
15077;SDS011;7638;49.760;8.646;2022-10-19T12:52:11;12.30;;;3.10;;
15077;SDS011;7638;49.760;8.646;2022-10-19T12:54:38;3.27;;;2.97;;
15077;SDS011;7638;49.760;8.646;2022-10-19T12:57:19;4.67;;;2.93;;
15077;SDS011;7638;49.760;8.646;2022-10-19T12:59:45;3.13;;;2.80;;
15077;SDS011;7638;49.760;8.646;2022-10-19T13:02:24;5.20;;;2.77;;
15077;SDS011;7638;49.760;8.646;2022-10-19T13:04:52;2.73;;;2.37;;
15077;SDS011;7638;49.760;8.646;2022-10-19T13:07:18;4.03;;;2.87;;
15077;SDS011;7638;49.760;8.646;2022-10-19T13:09:45;11.83;;;4.23;;
15077;SDS011;7638;49.760;8.646;2022-10-19T13:14:41;6.50;;;3.73;;
15077;SDS011;7638;49.760;8.646;2022-10-19T13:17:08;3.90;;;3.50;;
15077;SDS011;7638;49.760;8.646;2022-10-19T13:19:35;3.90;;;3.10;;
15077;SDS011;7638;49.760;8.646;2022-10-19T13:32:48;5.57;;;4.10;;
15077;SDS011;7638;49.760;8.646;2022-10-19T13:34:49;5.83;;;3.97;;
15077;SDS011;7638;49.760;8.646;2022-10-19T13:37:15;5.03;;;3.43;;
15077;SDS011;7638;49.760;8.646;2022-10-19T13:39:43;5.97;;;3.90;;
15077;SDS011;7638;49.760;8.646;2022-10-19T13:42:30;3.97;;;3.37;;
15077;SDS011;7638;49.760;8.646;2022-10-19T13:44:55;3.97;;;3.33;;
15077;SDS011;7638;49.760;8.646;2022-10-19T13:47:24;4.03;;;3.63;;
15077;SDS011;7638;49.760;8.646;2022-10-19T13:52:32;8.33;;;3.83;;
15077;SDS011;7638;49.760;8.646;2022-10-19T14:00:33;3.20;;;2.90;;
15077;SDS011;7638;49.760;8.646;2022-10-19T14:10:20;6.73;;;3.20;;
15077;SDS011;7638;49.760;8.646;2022-10-19T14:12:47;3.67;;;3.30;;
15077;SDS011;7638;49.760;8.646;2022-10-19T14:17:42;3.40;;;3.07;;
15077;SDS011;7638;49.760;8.646;2022-10-19T14:20:23;4.50;;;3.60;;
15077;SDS011;7638;49.760;8.646;2022-10-19T14:22:49;4.70;;;3.50;;
15077;SDS011;7638;49.760;8.646;2022-10-19T14:25:16;4.03;;;3.53;;
15077;SDS011;7638;49.760;8.646;2022-10-19T14:27:44;3.87;;;3.40;;
15077;SDS011;7638;49.760;8.646;2022-10-19T14:30:19;4.50;;;3.07;;
15077;SDS011;7638;49.760;8.646;2022-10-19T14:32:46;3.43;;;3.07;;
15077;SDS011;7638;49.760;8.646;2022-10-19T14:35:16;3.70;;;3.07;;
15077;SDS011;7638;49.760;8.646;2022-10-19T14:37:43;2.97;;;2.67;;
15077;SDS011;7638;49.760;8.646;2022-10-19T14:42:45;4.17;;;3.20;;
15077;SDS011;7638;49.760;8.646;2022-10-19T14:45:16;5.40;;;2.37;;
15077;SDS011;7638;49.760;8.646;2022-10-19T14:47:56;4.00;;;3.10;;
15077;SDS011;7638;49.760;8.646;2022-10-19T14:50:25;3.23;;;2.67;;
15077;SDS011;7638;49.760;8.646;2022-10-19T14:52:54;3.13;;;2.83;;
15077;SDS011;7638;49.760;8.646;2022-10-19T14:55:21;7.97;;;2.47;;
15077;SDS011;7638;49.760;8.646;2022-10-19T14:57:48;3.27;;;2.80;;
15077;SDS011;7638;49.760;8.646;2022-10-19T15:00:19;4.37;;;3.23;;
15077;SDS011;7638;49.760;8.646;2022-10-19T15:02:56;3.40;;;3.07;;
15077;SDS011;7638;49.760;8.646;2022-10-19T15:05:24;4.60;;;2.97;;
15077;SDS011;7638;49.760;8.646;2022-10-19T15:07:51;3.87;;;3.47;;
15077;SDS011;7638;49.760;8.646;2022-10-19T15:12:45;6.07;;;3.10;;
15077;SDS011;7638;49.760;8.646;2022-10-19T15:15:15;3.63;;;3.23;;
15077;SDS011;7638;49.760;8.646;2022-10-19T15:17:52;5.37;;;3.43;;
15077;SDS011;7638;49.760;8.646;2022-10-19T15:22:48;4.00;;;3.37;;
15077;SDS011;7638;49.760;8.646;2022-10-19T15:25:28;3.97;;;3.47;;
15077;SDS011;7638;49.760;8.646;2022-10-19T15:27:55;8.03;;;3.50;;
15077;SDS011;7638;49.760;8.646;2022-10-19T15:30:28;6.23;;;3.13;;
15077;SDS011;7638;49.760;8.646;2022-10-19T15:35:28;3.60;;;3.20;;
15077;SDS011;7638;49.760;8.646;2022-10-19T15:38:05;4.60;;;3.80;;
15077;SDS011;7638;49.760;8.646;2022-10-19T15:40:38;3.80;;;3.03;;
15077;SDS011;7638;49.760;8.646;2022-10-19T15:45:58;5.37;;;3.37;;
15077;SDS011;7638;49.760;8.646;2022-10-19T15:48:25;4.57;;;3.70;;
15077;SDS011;7638;49.760;8.646;2022-10-19T15:50:51;5.83;;;3.53;;
15077;SDS011;7638;49.760;8.646;2022-10-19T15:53:18;4.80;;;3.47;;
15077;SDS011;7638;49.760;8.646;2022-10-19T15:55:45;4.07;;;3.23;;
15077;SDS011;7638;49.760;8.646;2022-10-19T15:58:12;5.00;;;3.97;;
15077;SDS011;7638;49.760;8.646;2022-10-19T16:00:39;4.83;;;3.70;;
15077;SDS011;7638;49.760;8.646;2022-10-19T16:03:05;4.70;;;3.83;;
15077;SDS011;7638;49.760;8.646;2022-10-19T16:05:32;4.43;;;3.70;;
15077;SDS011;7638;49.760;8.646;2022-10-19T16:07:59;6.03;;;3.70;;
15077;SDS011;7638;49.760;8.646;2022-10-19T16:10:25;4.53;;;4.03;;
15077;SDS011;7638;49.760;8.646;2022-10-19T16:12:51;3.93;;;3.50;;
15077;SDS011;7638;49.760;8.646;2022-10-19T16:15:19;4.97;;;4.37;;
15077;SDS011;7638;49.760;8.646;2022-10-19T16:17:49;6.10;;;3.80;;
15077;SDS011;7638;49.760;8.646;2022-10-19T16:20:15;4.77;;;4.20;;
15077;SDS011;7638;49.760;8.646;2022-10-19T16:22:42;8.03;;;4.90;;
15077;SDS011;7638;49.760;8.646;2022-10-19T16:25:09;10.23;;;4.70;;
15077;SDS011;7638;49.760;8.646;2022-10-19T16:27:35;7.80;;;4.47;;
15077;SDS011;7638;49.760;8.646;2022-10-19T16:30:01;5.33;;;4.33;;
15077;SDS011;7638;49.760;8.646;2022-10-19T16:32:27;6.23;;;4.50;;
15077;SDS011;7638;49.760;8.646;2022-10-19T16:34:53;7.47;;;5.27;;
15077;SDS011;7638;49.760;8.646;2022-10-19T16:37:19;5.77;;;5.00;;
15077;SDS011;7638;49.760;8.646;2022-10-19T16:39:45;6.03;;;4.53;;
15077;SDS011;7638;49.760;8.646;2022-10-19T16:42:11;6.13;;;5.53;;
15077;SDS011;7638;49.760;8.646;2022-10-19T16:44:37;6.73;;;4.93;;
15077;SDS011;7638;49.760;8.646;2022-10-19T16:47:03;6.80;;;5.10;;
15077;SDS011;7638;49.760;8.646;2022-10-19T16:49:29;6.03;;;4.90;;
15077;SDS011;7638;49.760;8.646;2022-10-19T16:51:56;7.37;;;6.10;;
15077;SDS011;7638;49.760;8.646;2022-10-19T16:54:22;8.33;;;5.43;;
15077;SDS011;7638;49.760;8.646;2022-10-19T16:56:48;8.83;;;5.27;;
15077;SDS011;7638;49.760;8.646;2022-10-19T16:59:15;7.47;;;5.03;;
15077;SDS011;7638;49.760;8.646;2022-10-19T17:01:41;6.90;;;5.07;;
15077;SDS011;7638;49.760;8.646;2022-10-19T17:04:08;7.90;;;6.10;;
15077;SDS011;7638;49.760;8.646;2022-10-19T17:06:35;6.10;;;5.50;;
15077;SDS011;7638;49.760;8.646;2022-10-19T17:09:02;7.93;;;5.43;;
15077;SDS011;7638;49.760;8.646;2022-10-19T17:11:29;6.87;;;5.77;;
15077;SDS011;7638;49.760;8.646;2022-10-19T17:13:56;7.67;;;6.03;;